sensor_id;sensor_type;location;lat;lon;timestamp;pressure;altitude;pressure_sealevel;temperature;humidity
70546;BME280;58098;51.680;5.134;2023-01-28T00:00:49;103044.59;;;2.85;100.00
70546;BME280;58098;51.680;5.134;2023-01-28T00:03:15;103048.88;;;2.89;100.00
70546;BME280;58098;51.680;5.134;2023-01-28T00:05:41;103061.72;;;2.91;100.00
70546;BME280;58098;51.680;5.134;2023-01-28T00:08:06;103068.50;;;2.98;100.00
70546;BME280;58098;51.680;5.134;2023-01-28T00:10:32;103050.56;;;2.90;100.00
70546;BME280;58098;51.680;5.134;2023-01-28T00:12:57;103055.75;;;2.86;100.00
70546;BME280;58098;51.680;5.134;2023-01-28T00:15:23;103057.56;;;2.79;100.00
70546;BME280;58098;51.680;5.134;2023-01-28T00:17:49;103043.03;;;2.71;100.00
70546;BME280;58098;51.680;5.134;2023-01-28T00:20:15;103064.34;;;2.86;100.00
70546;BME280;58098;51.680;5.134;2023-01-28T00:22:46;103059.22;;;2.86;100.00
70546;BME280;58098;51.680;5.134;2023-01-28T00:25:12;103061.75;;;2.88;100.00
70546;BME280;58098;51.680;5.134;2023-01-28T00:27:37;103057.47;;;2.85;100.00
70546;BME280;58098;51.680;5.134;2023-01-28T00:30:03;103065.25;;;2.84;100.00
70546;BME280;58098;51.680;5.134;2023-01-28T00:32:28;103055.91;;;2.74;100.00
70546;BME280;58098;51.680;5.134;2023-01-28T00:34:54;103028.56;;;2.59;100.00
70546;BME280;58098;51.680;5.134;2023-01-28T00:37:20;103056.81;;;2.70;100.00
70546;BME280;58098;51.680;5.134;2023-01-28T00:39:45;103058.50;;;2.71;100.00
70546;BME280;58098;51.680;5.134;2023-01-28T00:42:10;103059.38;;;2.71;100.00
70546;BME280;58098;51.680;5.134;2023-01-28T00:44:36;103074.78;;;2.77;100.00
70546;BME280;58098;51.680;5.134;2023-01-28T00:47:02;103067.09;;;2.71;100.00
70546;BME280;58098;51.680;5.134;2023-01-28T00:49:27;103080.84;;;2.72;100.00
70546;BME280;58098;51.680;5.134;2023-01-28T00:51:53;103080.75;;;2.78;100.00
70546;BME280;58098;51.680;5.134;2023-01-28T00:54:19;103086.84;;;2.72;100.00
70546;BME280;58098;51.680;5.134;2023-01-28T00:56:45;103073.97;;;2.72;100.00
70546;BME280;58098;51.680;5.134;2023-01-28T00:59:10;103080.84;;;2.72;100.00
70546;BME280;58098;51.680;5.134;2023-01-28T01:01:36;103080.00;;;2.68;100.00
70546;BME280;58098;51.680;5.134;2023-01-28T01:04:01;103080.88;;;2.70;100.00
70546;BME280;58098;51.680;5.134;2023-01-28T01:06:32;103074.03;;;2.63;100.00
70546;BME280;58098;51.680;5.134;2023-01-28T01:08:58;103051.75;;;2.59;100.00
70546;BME280;58098;51.680;5.134;2023-01-28T01:11:23;103063.72;;;2.66;100.00
70546;BME280;58098;51.680;5.134;2023-01-28T01:13:57;103028.72;;;2.44;100.00
70546;BME280;58098;51.680;5.134;2023-01-28T01:16:27;103064.66;;;2.59;100.00
70546;BME280;58098;51.680;5.134;2023-01-28T01:18:53;103074.09;;;2.60;100.00
70546;BME280;58098;51.680;5.134;2023-01-28T01:21:22;103073.22;;;2.61;100.00
70546;BME280;58098;51.680;5.134;2023-01-28T01:23:48;103064.66;;;2.56;100.00
70546;BME280;58098;51.680;5.134;2023-01-28T01:26:14;103071.53;;;2.60;100.00
70546;BME280;58098;51.680;5.134;2023-01-28T01:28:39;103057.84;;;2.55;100.00
70546;BME280;58098;51.680;5.134;2023-01-28T01:31:10;103057.81;;;2.58;100.00
70546;BME280;58098;51.680;5.134;2023-01-28T01:33:36;103053.50;;;2.57;100.00
70546;BME280;58098;51.680;5.134;2023-01-28T01:36:04;103062.94;;;2.59;100.00
70546;BME280;58098;51.680;5.134;2023-01-28T01:38:29;103064.69;;;2.57;100.00
70546;BME280;58098;51.680;5.134;2023-01-28T01:40:58;103052.69;;;2.52;100.00
70546;BME280;58098;51.680;5.134;2023-01-28T01:43:25;103067.25;;;2.56;100.00
70546;BME280;58098;51.680;5.134;2023-01-28T01:46:09;103066.41;;;2.57;100.00
70546;BME280;58098;51.680;5.134;2023-01-28T01:48:35;103064.66;;;2.56;100.00
70546;BME280;58098;51.680;5.134;2023-01-28T01:51:10;103064.66;;;2.59;100.00
70546;BME280;58098;51.680;5.134;2023-01-28T01:53:40;103065.50;;;2.59;100.00
70546;BME280;58098;51.680;5.134;2023-01-28T01:56:08;103065.50;;;2.62;100.00
70546;BME280;58098;51.680;5.134;2023-01-28T01:58:37;103072.47;;;2.53;100.00
70546;BME280;58098;51.680;5.134;2023-01-28T02:01:05;103054.50;;;2.45;100.00
70546;BME280;58098;51.680;5.134;2023-01-28T02:03:38;103073.28;;;2.55;100.00
70546;BME280;58098;51.680;5.134;2023-01-28T02:06:07;103078.47;;;2.52;100.00
70546;BME280;58098;51.680;5.134;2023-01-28T02:08:32;103071.69;;;2.43;100.00
70546;BME280;58098;51.680;5.134;2023-01-28T02:11:01;103071.72;;;2.40;100.00
70546;BME280;58098;51.680;5.134;2023-01-28T02:13:33;103083.66;;;2.46;100.00
70546;BME280;58098;51.680;5.134;2023-01-28T02:16:02;103080.22;;;2.50;100.00
70546;BME280;58098;51.680;5.134;2023-01-28T02:18:28;103075.06;;;2.47;100.00
70546;BME280;58098;51.680;5.134;2023-01-28T02:29:16;103078.47;;;2.49;100.00
70546;BME280;58098;51.680;5.134;2023-01-28T02:31:54;103071.63;;;2.49;100.00
70546;BME280;58098;51.680;5.134;2023-01-28T02:34:40;103057.19;;;2.33;100.00
70546;BME280;58098;51.680;5.134;2023-01-28T02:40:19;103069.00;;;2.55;100.00
70546;BME280;58098;51.680;5.134;2023-01-28T02:42:46;103069.13;;;2.43;100.00
70546;BME280;58098;51.680;5.134;2023-01-28T02:45:19;103063.16;;;2.37;100.00
70546;BME280;58098;51.680;5.134;2023-01-28T02:47:45;103078.63;;;2.34;100.00
70546;BME280;58098;51.680;5.134;2023-01-28T02:50:24;103087.16;;;2.40;100.00
70546;BME280;58098;51.680;5.134;2023-01-28T02:53:04;103071.78;;;2.33;100.00
70546;BME280;58098;51.680;5.134;2023-01-28T02:56:01;103082.81;;;2.47;100.00
70546;BME280;58098;51.680;5.134;2023-01-28T03:06:06;103080.31;;;2.38;100.00
70546;BME280;58098;51.680;5.134;2023-01-28T03:08:39;103089.72;;;2.42;100.00
70546;BME280;58098;51.680;5.134;2023-01-28T03:11:27;103090.59;;;2.41;100.00
70546;BME280;58098;51.680;5.134;2023-01-28T03:14:15;103088.06;;;2.35;100.00
70546;BME280;58098;51.680;5.134;2023-01-28T03:17:00;103081.19;;;2.35;100.00
70546;BME280;58098;51.680;5.134;2023-01-28T03:19:45;103102.66;;;2.36;100.00
70546;BME280;58098;51.680;5.134;2023-01-28T03:22:31;103092.38;;;2.36;100.00
70546;BME280;58098;51.680;5.134;2023-01-28T03:25:19;103076.97;;;2.27;100.00
70546;BME280;58098;51.680;5.134;2023-01-28T03:28:08;103080.44;;;2.26;100.00
70546;BME280;58098;51.680;5.134;2023-01-28T03:30:58;103088.94;;;2.32;100.00
70546;BME280;58098;51.680;5.134;2023-01-28T03:33:46;103073.53;;;2.28;100.00
70546;BME280;58098;51.680;5.134;2023-01-28T03:36:30;103069.25;;;2.28;100.00
70546;BME280;58098;51.680;5.134;2023-01-28T03:39:16;103076.97;;;2.27;100.00
70546;BME280;58098;51.680;5.134;2023-01-28T03:41:41;103101.81;;;2.35;100.00
70546;BME280;58098;51.680;5.134;2023-01-28T03:44:07;103077.91;;;2.21;100.00
70546;BME280;58098;51.680;5.134;2023-01-28T03:46:51;103081.31;;;2.20;100.00
70546;BME280;58098;51.680;5.134;2023-01-28T03:49:16;103087.25;;;2.30;100.00
70546;BME280;58098;51.680;5.134;2023-01-28T03:51:42;103081.34;;;2.19;100.00
70546;BME280;58098;51.680;5.134;2023-01-28T03:54:08;103084.75;;;2.24;100.00
70546;BME280;58098;51.680;5.134;2023-01-28T03:56:33;103084.75;;;2.19;100.00
70546;BME280;58098;51.680;5.134;2023-01-28T03:59:05;103099.31;;;2.22;100.00
70546;BME280;58098;51.680;5.134;2023-01-28T04:01:30;103084.84;;;2.12;100.00
70546;BME280;58098;51.680;5.134;2023-01-28T04:03:56;103088.19;;;2.20;100.00
70546;BME280;58098;51.680;5.134;2023-01-28T04:06:21;103101.94;;;2.20;100.00
70546;BME280;58098;51.680;5.134;2023-01-28T04:08:47;103105.34;;;2.19;100.00
70546;BME280;58098;51.680;5.134;2023-01-28T04:11:19;103109.66;;;2.20;100.00
70546;BME280;58098;51.680;5.134;2023-01-28T04:13:47;103087.44;;;2.09;100.00
70546;BME280;58098;51.680;5.134;2023-01-28T04:16:14;103108.03;;;2.12;100.00
70546;BME280;58098;51.680;5.134;2023-01-28T04:18:41;103117.38;;;2.17;100.00
70546;BME280;58098;51.680;5.134;2023-01-28T04:21:06;103105.47;;;2.09;100.00
70546;BME280;58098;51.680;5.134;2023-01-28T04:23:31;103099.44;;;2.08;100.00
70546;BME280;58098;51.680;5.134;2023-01-28T04:25:57;103098.59;;;2.06;100.00
70546;BME280;58098;51.680;5.134;2023-01-28T04:28:23;103109.72;;;2.13;100.00
70546;BME280;58098;51.680;5.134;2023-01-28T04:30:48;103080.63;;;2.02;100.00
70546;BME280;58098;51.680;5.134;2023-01-28T04:33:13;103097.75;;;2.06;100.00
70546;BME280;58098;51.680;5.134;2023-01-28T04:35:39;103093.44;;;2.09;100.00
70546;BME280;58098;51.680;5.134;2023-01-28T04:38:05;103097.72;;;2.12;100.00
70546;BME280;58098;51.680;5.134;2023-01-28T04:40:30;103108.03;;;2.12;100.00
70546;BME280;58098;51.680;5.134;2023-01-28T04:42:56;103110.56;;;2.13;100.00
70546;BME280;58098;51.680;5.134;2023-01-28T04:45:22;103108.84;;;2.12;100.00
70546;BME280;58098;51.680;5.134;2023-01-28T04:47:47;103100.28;;;2.07;100.00
70546;BME280;58098;51.680;5.134;2023-01-28T04:50:13;103098.59;;;2.05;100.00
70546;BME280;58098;51.680;5.134;2023-01-28T04:52:38;103099.47;;;2.07;100.00
70546;BME280;58098;51.680;5.134;2023-01-28T04:55:04;103121.72;;;2.14;100.00
70546;BME280;58098;51.680;5.134;2023-01-28T04:57:30;103123.47;;;2.12;100.00
70546;BME280;58098;51.680;5.134;2023-01-28T04:59:55;103104.63;;;2.02;100.00
70546;BME280;58098;51.680;5.134;2023-01-28T05:02:20;103111.44;;;2.11;100.00
70546;BME280;58098;51.680;5.134;2023-01-28T05:04:46;103116.53;;;2.17;100.00
70546;BME280;58098;51.680;5.134;2023-01-28T05:07:11;103107.19;;;2.07;100.00
70546;BME280;58098;51.680;5.134;2023-01-28T05:09:36;103121.72;;;2.14;100.00
70546;BME280;58098;51.680;5.134;2023-01-28T05:12:02;103135.47;;;2.13;100.00
70546;BME280;58098;51.680;5.134;2023-01-28T05:14:28;103121.75;;;2.08;100.00
70546;BME280;58098;51.680;5.134;2023-01-28T05:16:53;103104.63;;;2.02;100.00
70546;BME280;58098;51.680;5.134;2023-01-28T05:19:18;103114.88;;;2.11;100.00
70546;BME280;58098;51.680;5.134;2023-01-28T05:21:44;103111.44;;;2.11;100.00
70546;BME280;58098;51.680;5.134;2023-01-28T05:24:09;103095.19;;;2.04;100.00
70546;BME280;58098;51.680;5.134;2023-01-28T05:26:35;103098.66;;;1.98;100.00
70546;BME280;58098;51.680;5.134;2023-01-28T05:29:01;103111.47;;;2.08;100.00
70546;BME280;58098;51.680;5.134;2023-01-28T05:31:26;103097.78;;;2.01;100.00
70546;BME280;58098;51.680;5.134;2023-01-28T05:33:52;103101.22;;;2.02;100.00
70546;BME280;58098;51.680;5.134;2023-01-28T05:36:17;103102.97;;;1.96;100.00
70546;BME280;58098;51.680;5.134;2023-01-28T05:38:43;103120.06;;;2.07;100.00
70546;BME280;58098;51.680;5.134;2023-01-28T05:41:08;103076.38;;;1.93;100.00
70546;BME280;58098;51.680;5.134;2023-01-28T05:43:33;103093.50;;;2.02;100.00
70546;BME280;58098;51.680;5.134;2023-01-28T05:45:59;103114.91;;;2.05;100.00
70546;BME280;58098;51.680;5.134;2023-01-28T05:48:24;103085.03;;;1.86;100.00
70546;BME280;58098;51.680;5.134;2023-01-28T05:50:50;103112.34;;;2.07;100.00
70546;BME280;58098;51.680;5.134;2023-01-28T05:53:15;103121.78;;;2.05;100.00
70546;BME280;58098;51.680;5.134;2023-01-28T05:55:40;103101.25;;;1.98;100.00
70546;BME280;58098;51.680;5.134;2023-01-28T05:58:06;103119.25;;;2.02;100.00
70546;BME280;58098;51.680;5.134;2023-01-28T06:00:31;103106.41;;;1.95;100.00
70546;BME280;58098;51.680;5.134;2023-01-28T06:02:56;103103.00;;;1.93;100.00
70546;BME280;58098;51.680;5.134;2023-01-28T06:05:22;103125.22;;;2.05;100.00
70546;BME280;58098;51.680;5.134;2023-01-28T06:07:47;103111.56;;;1.97;100.00
70546;BME280;58098;51.680;5.134;2023-01-28T06:10:14;103113.19;;;2.06;100.00
70546;BME280;58098;51.680;5.134;2023-01-28T06:12:42;103068.75;;;1.82;100.00
70546;BME280;58098;51.680;5.134;2023-01-28T06:15:08;103108.09;;;1.99;100.00
70546;BME280;58098;51.680;5.134;2023-01-28T06:17:33;103079.06;;;1.82;100.00
70546;BME280;58098;51.680;5.134;2023-01-28T06:19:59;103118.34;;;2.09;100.00
70546;BME280;58098;51.680;5.134;2023-01-28T06:22:24;103098.69;;;1.92;100.00
70546;BME280;58098;51.680;5.134;2023-01-28T06:24:49;103103.78;;;2.00;100.00
70546;BME280;58098;51.680;5.134;2023-01-28T06:27:15;103109.81;;;1.97;100.00
70546;BME280;58098;51.680;5.134;2023-01-28T06:29:40;103105.53;;;1.95;100.00
70546;BME280;58098;51.680;5.134;2023-01-28T06:32:05;103111.50;;;2.00;100.00
70546;BME280;58098;51.680;5.134;2023-01-28T06:34:31;103097.00;;;1.91;100.00
70546;BME280;58098;51.680;5.134;2023-01-28T06:36:57;103120.09;;;2.00;100.00
70546;BME280;58098;51.680;5.134;2023-01-28T06:39:22;103107.28;;;1.94;100.00
70546;BME280;58098;51.680;5.134;2023-01-28T06:41:48;103116.66;;;2.02;100.00
70546;BME280;58098;51.680;5.134;2023-01-28T06:44:14;103112.44;;;1.94;100.00
70546;BME280;58098;51.680;5.134;2023-01-28T06:46:39;103126.94;;;2.00;100.00
70546;BME280;58098;51.680;5.134;2023-01-28T06:49:04;103114.97;;;1.97;100.00
70546;BME280;58098;51.680;5.134;2023-01-28T06:51:30;103121.84;;;1.97;100.00
70546;BME280;58098;51.680;5.134;2023-01-28T06:53:55;103122.66;;;2.02;100.00
70546;BME280;58098;51.680;5.134;2023-01-28T06:56:21;103121.84;;;1.97;100.00
70546;BME280;58098;51.680;5.134;2023-01-28T06:58:46;103109.03;;;1.88;100.00
70546;BME280;58098;51.680;5.134;2023-01-28T07:01:11;103109.88;;;1.91;100.00
70546;BME280;58098;51.680;5.134;2023-01-28T07:03:37;103109.06;;;1.83;100.00
70546;BME280;58098;51.680;5.134;2023-01-28T07:06:02;103139.03;;;1.93;100.00
70546;BME280;58098;51.680;5.134;2023-01-28T07:08:28;103147.59;;;1.95;100.00
70546;BME280;58098;51.680;5.134;2023-01-28T07:10:53;103151.84;;;1.98;100.00
70546;BME280;58098;51.680;5.134;2023-01-28T07:13:18;103145.03;;;1.97;100.00
70546;BME280;58098;51.680;5.134;2023-01-28T07:15:44;103154.47;;;1.96;100.00
70546;BME280;58098;51.680;5.134;2023-01-28T07:18:09;103157.88;;;1.95;100.00
70546;BME280;58098;51.680;5.134;2023-01-28T07:20:34;103137.34;;;1.86;100.00
70546;BME280;58098;51.680;5.134;2023-01-28T07:23:00;103155.31;;;1.95;100.00
70546;BME280;58098;51.680;5.134;2023-01-28T07:25:25;103151.06;;;1.85;100.00
70546;BME280;58098;51.680;5.134;2023-01-28T07:27:52;103161.34;;;1.88;100.00
70546;BME280;58098;51.680;5.134;2023-01-28T07:30:18;103169.06;;;1.94;100.00
70546;BME280;58098;51.680;5.134;2023-01-28T07:32:44;103158.81;;;1.87;100.00
70546;BME280;58098;51.680;5.134;2023-01-28T07:35:10;103176.78;;;1.94;100.00
70546;BME280;58098;51.680;5.134;2023-01-28T07:37:36;103171.66;;;1.85;100.00
70546;BME280;58098;51.680;5.134;2023-01-28T07:40:02;103168.25;;;1.86;100.00
70546;BME280;58098;51.680;5.134;2023-01-28T07:42:27;103166.56;;;1.82;100.00
70546;BME280;58098;51.680;5.134;2023-01-28T07:44:53;103184.50;;;1.91;100.00
70546;BME280;58098;51.680;5.134;2023-01-28T07:47:18;103153.66;;;1.84;100.00
70546;BME280;58098;51.680;5.134;2023-01-28T07:49:43;103180.22;;;1.93;100.00
70546;BME280;58098;51.680;5.134;2023-01-28T07:52:09;103156.25;;;1.82;100.00
70546;BME280;58098;51.680;5.134;2023-01-28T07:54:34;103173.31;;;1.95;100.00
70546;BME280;58098;51.680;5.134;2023-01-28T07:56:59;103169.09;;;1.84;100.00
70546;BME280;58098;51.680;5.134;2023-01-28T07:59:25;103193.91;;;1.98;100.00
70546;BME280;58098;51.680;5.134;2023-01-28T08:01:50;103178.50;;;1.88;100.00
70546;BME280;58098;51.680;5.134;2023-01-28T08:04:18;103169.09;;;1.87;100.00
70546;BME280;58098;51.680;5.134;2023-01-28T08:06:43;103195.63;;;1.95;100.00
70546;BME280;58098;51.680;5.134;2023-01-28T08:09:09;103192.19;;;1.96;100.00
70546;BME280;58098;51.680;5.134;2023-01-28T08:11:37;103205.91;;;2.01;100.00
70546;BME280;58098;51.680;5.134;2023-01-28T08:14:03;103207.66;;;1.94;100.00
70546;BME280;58098;51.680;5.134;2023-01-28T08:16:29;103171.72;;;1.73;100.00
70546;BME280;58098;51.680;5.134;2023-01-28T08:18:55;103205.94;;;1.93;100.00
70546;BME280;58098;51.680;5.134;2023-01-28T08:21:20;103209.38;;;1.92;100.00
70546;BME280;58098;51.680;5.134;2023-01-28T08:23:46;103211.09;;;1.96;100.00
70546;BME280;58098;51.680;5.134;2023-01-28T08:26:11;103199.09;;;1.91;100.00
70546;BME280;58098;51.680;5.134;2023-01-28T08:28:37;103221.31;;;2.06;100.00
70546;BME280;58098;51.680;5.134;2023-01-28T08:31:02;103212.78;;;1.97;100.00
70546;BME280;58098;51.680;5.134;2023-01-28T08:33:28;103214.50;;;1.95;100.00
70546;BME280;58098;51.680;5.134;2023-01-28T08:35:53;103194.84;;;1.84;100.00
70546;BME280;58098;51.680;5.134;2023-01-28T08:38:19;103214.50;;;1.95;100.00
70546;BME280;58098;51.680;5.134;2023-01-28T08:40:45;103233.38;;;2.00;100.00
70546;BME280;58098;51.680;5.134;2023-01-28T08:43:11;103220.50;;;1.99;100.00
70546;BME280;58098;51.680;5.134;2023-01-28T08:45:38;103222.22;;;2.00;100.00
70546;BME280;58098;51.680;5.134;2023-01-28T08:48:05;103222.28;;;1.89;100.00
70546;BME280;58098;51.680;5.134;2023-01-28T08:50:34;103224.81;;;1.92;100.00
70546;BME280;58098;51.680;5.134;2023-01-28T08:53:02;103227.47;;;1.82;100.00
70546;BME280;58098;51.680;5.134;2023-01-28T08:55:28;103241.97;;;1.95;100.00
70546;BME280;58098;51.680;5.134;2023-01-28T08:57:54;103236.84;;;1.87;100.00
70546;BME280;58098;51.680;5.134;2023-01-28T09:00:21;103250.56;;;1.94;100.00
70546;BME280;58098;51.680;5.134;2023-01-28T09:02:50;103232.56;;;1.88;100.00
70546;BME280;58098;51.680;5.134;2023-01-28T09:05:15;103230.00;;;1.89;100.00
70546;BME280;58098;51.680;5.134;2023-01-28T09:07:41;103220.56;;;1.87;100.00
70546;BME280;58098;51.680;5.134;2023-01-28T09:10:08;103216.25;;;1.92;100.00
70546;BME280;58098;51.680;5.134;2023-01-28T09:12:34;103229.09;;;1.98;100.00
70546;BME280;58098;51.680;5.134;2023-01-28T09:14:59;103246.22;;;2.07;100.00
70546;BME280;58098;51.680;5.134;2023-01-28T09:17:25;103255.69;;;1.98;100.00
70546;BME280;58098;51.680;5.134;2023-01-28T09:19:50;103262.56;;;1.96;100.00
70546;BME280;58098;51.680;5.134;2023-01-28T09:22:15;103272.78;;;2.10;100.00
70546;BME280;58098;51.680;5.134;2023-01-28T09:24:41;103285.69;;;2.12;100.00
70546;BME280;58098;51.680;5.134;2023-01-28T09:27:07;103271.97;;;2.05;100.00
70546;BME280;58098;51.680;5.134;2023-01-28T09:29:35;103282.22;;;2.14;100.00
70546;BME280;58098;51.680;5.134;2023-01-28T09:32:02;103277.09;;;2.02;100.00
70546;BME280;58098;51.680;5.134;2023-01-28T09:34:28;103281.38;;;2.11;100.00
70546;BME280;58098;51.680;5.134;2023-01-28T09:36:53;103287.38;;;2.14;100.00
70546;BME280;58098;51.680;5.134;2023-01-28T09:39:18;103269.44;;;1.94;100.00
70546;BME280;58098;51.680;5.134;2023-01-28T09:47:23;103293.41;;;2.12;100.00
70546;BME280;58098;51.680;5.134;2023-01-28T09:49:52;103281.38;;;2.08;100.00
70546;BME280;58098;51.680;5.134;2023-01-28T09:52:20;103299.38;;;2.21;100.00
70546;BME280;58098;51.680;5.134;2023-01-28T09:54:54;103294.19;;;2.24;100.00
70546;BME280;58098;51.680;5.134;2023-01-28T09:57:24;103301.91;;;2.23;100.00
70546;BME280;58098;51.680;5.134;2023-01-28T09:59:50;103313.94;;;2.24;100.00
70546;BME280;58098;51.680;5.134;2023-01-28T10:10:41;103317.31;;;2.35;100.00
70546;BME280;58098;51.680;5.134;2023-01-28T10:13:19;103315.59;;;2.34;100.00
70546;BME280;58098;51.680;5.134;2023-01-28T10:16:02;103316.44;;;2.37;100.00
70546;BME280;58098;51.680;5.134;2023-01-28T10:18:43;103302.72;;;2.34;100.00
70546;BME280;58098;51.680;5.134;2023-01-28T10:21:27;103316.41;;;2.39;100.00
70546;BME280;58098;51.680;5.134;2023-01-28T10:26:33;103313.81;;;2.48;100.00
70546;BME280;58098;51.680;5.134;2023-01-28T10:29:03;103280.41;;;2.36;100.00
70546;BME280;58098;51.680;5.134;2023-01-28T10:31:34;103289.88;;;2.31;100.00
70546;BME280;58098;51.680;5.134;2023-01-28T10:34:01;103286.53;;;2.08;100.00
70546;BME280;58098;51.680;5.134;2023-01-28T10:36:28;103272.88;;;1.96;100.00
70546;BME280;58098;51.680;5.134;2023-01-28T10:38:54;103273.72;;;2.02;100.00
70546;BME280;58098;51.680;5.134;2023-01-28T10:41:21;103281.38;;;2.11;100.00
70546;BME280;58098;51.680;5.134;2023-01-28T10:43:48;103289.03;;;2.23;100.00
70546;BME280;58098;51.680;5.134;2023-01-28T10:46:18;103289.03;;;2.29;100.00
70546;BME280;58098;51.680;5.134;2023-01-28T10:49:07;103281.22;;;2.36;100.00
70546;BME280;58098;51.680;5.134;2023-01-28T10:51:38;103256.41;;;2.22;100.00
70546;BME280;58098;51.680;5.134;2023-01-28T10:54:21;103267.59;;;2.24;100.00
70546;BME280;58098;51.680;5.134;2023-01-28T10:56:49;103264.13;;;2.31;100.00
70546;BME280;58098;51.680;5.134;2023-01-28T10:59:26;103276.09;;;2.35;100.00
70546;BME280;58098;51.680;5.134;2023-01-28T11:02:27;103282.09;;;2.38;100.00
70546;BME280;58098;51.680;5.134;2023-01-28T11:04:45;103260.69;;;2.29;100.00
70546;BME280;58098;51.680;5.134;2023-01-28T11:07:19;103252.09;;;2.28;100.00
70546;BME280;58098;51.680;5.134;2023-01-28T11:09:47;103246.84;;;2.42;100.00
70546;BME280;58098;51.680;5.134;2023-01-28T11:12:21;103245.19;;;2.38;100.00
70546;BME280;58098;51.680;5.134;2023-01-28T11:17:25;103233.13;;;2.43;100.00
70546;BME280;58098;51.680;5.134;2023-01-28T11:19:52;103207.31;;;2.46;100.00
70546;BME280;58098;51.680;5.134;2023-01-28T11:22:38;103227.03;;;2.54;100.00
70546;BME280;58098;51.680;5.134;2023-01-28T11:27:49;103227.84;;;2.62;100.00
70546;BME280;58098;51.680;5.134;2023-01-28T11:30:30;103231.25;;;2.63;100.00
70546;BME280;58098;51.680;5.134;2023-01-28T11:33:16;103212.31;;;2.65;100.00
70546;BME280;58098;51.680;5.134;2023-01-28T11:35:55;103218.25;;;2.75;100.00
70546;BME280;58098;51.680;5.134;2023-01-28T11:38:23;103197.66;;;2.74;100.00
70546;BME280;58098;51.680;5.134;2023-01-28T11:40:50;103177.91;;;2.71;100.00
70546;BME280;58098;51.680;5.134;2023-01-28T11:43:16;103159.00;;;2.74;100.00
70546;BME280;58098;51.680;5.134;2023-01-28T11:48:48;103145.97;;;2.89;100.00
70546;BME280;58098;51.680;5.134;2023-01-28T11:57:10;103139.63;;;3.18;100.00
70546;BME280;58098;51.680;5.134;2023-01-28T12:00:20;103132.72;;;3.20;100.00
70546;BME280;58098;51.680;5.134;2023-01-28T12:03:14;103129.19;;;3.30;100.00
70546;BME280;58098;51.680;5.134;2023-01-28T12:05:52;103125.81;;;3.22;100.00
70546;BME280;58098;51.680;5.134;2023-01-28T12:16:53;103153.13;;;3.40;100.00
70546;BME280;58098;51.680;5.134;2023-01-28T12:19:35;103142.88;;;3.34;100.00
70546;BME280;58098;51.680;5.134;2023-01-28T12:43:23;103183.88;;;4.19;100.00
70546;BME280;58098;51.680;5.134;2023-01-28T12:45:56;103170.97;;;4.21;100.00
70546;BME280;58098;51.680;5.134;2023-01-28T12:48:45;103181.09;;;4.34;100.00
70546;BME280;58098;51.680;5.134;2023-01-28T12:54:18;103141.84;;;4.11;100.00
70546;BME280;58098;51.680;5.134;2023-01-28T12:56:55;103182.91;;;4.28;100.00
70546;BME280;58098;51.680;5.134;2023-01-28T12:59:31;103194.00;;;4.34;100.00
70546;BME280;58098;51.680;5.134;2023-01-28T13:07:17;103172.06;;;4.58;100.00
70546;BME280;58098;51.680;5.134;2023-01-28T13:09:59;103162.25;;;4.78;100.00
70546;BME280;58098;51.680;5.134;2023-01-28T13:12:29;103162.63;;;5.06;100.00
70546;BME280;58098;51.680;5.134;2023-01-28T13:14:57;103161.44;;;5.22;100.00
70546;BME280;58098;51.680;5.134;2023-01-28T13:17:30;103164.44;;;5.44;100.00
70546;BME280;58098;51.680;5.134;2023-01-28T13:19:57;103161.97;;;5.39;100.00
70546;BME280;58098;51.680;5.134;2023-01-28T13:22:34;103153.31;;;5.40;100.00
70546;BME280;58098;51.680;5.134;2023-01-28T13:25:24;103148.25;;;5.34;100.00
70546;BME280;58098;51.680;5.134;2023-01-28T13:28:00;103153.56;;;5.28;100.00
70546;BME280;58098;51.680;5.134;2023-01-28T13:30:28;103132.25;;;5.14;100.00
70546;BME280;58098;51.680;5.134;2023-01-28T13:33:03;103133.16;;;5.13;100.00
70546;BME280;58098;51.680;5.134;2023-01-28T13:35:35;103124.72;;;5.03;100.00
70546;BME280;58098;51.680;5.134;2023-01-28T13:38:08;103115.28;;;4.99;100.00
70546;BME280;58098;51.680;5.134;2023-01-28T13:40:34;103101.91;;;4.79;100.00
70546;BME280;58098;51.680;5.134;2023-01-28T13:43:22;103102.88;;;4.74;100.00
70546;BME280;58098;51.680;5.134;2023-01-28T13:45:58;103101.16;;;4.73;100.00
70546;BME280;58098;51.680;5.134;2023-01-28T13:50:59;103102.97;;;4.67;100.00
70546;BME280;58098;51.680;5.134;2023-01-28T13:53:38;103102.06;;;4.70;100.00
70546;BME280;58098;51.680;5.134;2023-01-28T13:56:16;103100.53;;;4.58;100.00
70546;BME280;58098;51.680;5.134;2023-01-28T14:04:31;103114.63;;;4.42;100.00
70546;BME280;58098;51.680;5.134;2023-01-28T14:13:04;103136.34;;;4.31;100.00
70546;BME280;58098;51.680;5.134;2023-01-28T14:18:26;103126.59;;;3.93;100.00
70546;BME280;58098;51.680;5.134;2023-01-28T14:20:55;103126.81;;;3.78;100.00
70546;BME280;58098;51.680;5.134;2023-01-28T14:23:24;103132.59;;;3.95;100.00
70546;BME280;58098;51.680;5.134;2023-01-28T14:28:52;103127.28;;;4.04;100.00
70546;BME280;58098;51.680;5.134;2023-01-28T14:31:27;103124.66;;;4.09;100.00
70546;BME280;58098;51.680;5.134;2023-01-28T14:33:59;103125.47;;;4.11;100.00
70546;BME280;58098;51.680;5.134;2023-01-28T14:36:27;103127.28;;;4.06;100.00
70546;BME280;58098;51.680;5.134;2023-01-28T14:38:54;103137.53;;;4.10;100.00
70546;BME280;58098;51.680;5.134;2023-01-28T14:41:24;103143.44;;;4.18;100.00
70546;BME280;58098;51.680;5.134;2023-01-28T14:43:52;103135.81;;;4.09;100.00
70546;BME280;58098;51.680;5.134;2023-01-28T14:46:48;103134.00;;;4.16;100.00
70546;BME280;58098;51.680;5.134;2023-01-28T14:49:28;103104.22;;;3.92;100.00